Terminal Aerodrome Forecast
Issued by NWS

Home | Current Version | Previous Version | Graphics & Text | Print | Product List | Glossary On
Versions: 1 2 3 4 5 6 7 8 9 10 11 12 13 14 15 16 17
000
FTUS43 KGRB 212339
TAFCWA
TAF
KCWA 212339Z 2200/2224 17006KT P6SM SCT120 BKN250
     FM220400 20006KT P6SM SCT100 WS010/23035KT
     FM221300 24004KT P6SM SCT100 BKN250
     FM222100 23005KT P6SM BKN120=

USA.gov is the U.S. government's official web portal to all federal, state and local government web resources and services.